Time;durP1;ratioP1;P1;durP2;ratioP2;P2;SDS_P1;SDS_P2;PMS_P1;PMS_P2;Temp;Humidity;BMP_temperature;BMP_pressure;BME280_temperature;BME280_humidity;BME280_pressure;Samples;Min_cycle;Max_cycle;Signal;HPM_P1;HPM_P2
2021/11/09 00:01:16;;;;;;;28.70;17.12;;;;;;;6.86;83.88;98280.86;1705456;83;21077;-84
2021/11/09 00:03:56;;;;;;;29.27;17.73;;;;;;;6.87;83.81;98283.06;1705475;83;20980;-83
2021/11/09 00:06:27;;;;;;;27.30;16.60;;;;;;;6.89;84.09;98290.50;1729749;82;21024;-88
2021/11/09 00:09:04;;;;;;;27.77;16.82;;;;;;;6.92;84.27;98288.27;1729891;81;21097;-85
2021/11/09 00:11:32;;;;;;;25.17;15.78;;;;;;;6.92;84.31;98290.48;1708772;83;21018;-87
2021/11/09 00:14:04;;;;;;;27.15;15.70;;;;;;;6.97;84.28;98289.09;1705436;83;21022;-88
2021/11/09 00:16:37;;;;;;;24.95;15.03;;;;;;;7.00;84.49;98288.64;1702082;83;20992;-87
2021/11/09 00:19:09;;;;;;;27.60;15.70;;;;;;;7.04;84.45;98292.55;1700454;83;21044;-87
2021/11/09 00:21:41;;;;;;;26.42;16.17;;;;;;;7.06;83.92;98295.59;1700405;83;21052;-87
2021/11/09 00:24:15;;;;;;;27.25;17.00;;;;;;;7.04;83.59;98298.70;1701774;83;20998;-87
2021/11/09 00:26:42;;;;;;;29.60;16.80;;;;;;;6.98;83.84;98296.14;1680005;83;21039;-87
2021/11/09 00:29:09;;;;;;;28.67;17.77;;;;;;;6.90;84.21;98288.31;1726761;83;20976;-87
2021/11/09 00:31:36;;;;;;;27.10;16.70;;;;;;;6.90;84.17;98289.63;1726975;83;21462;-87
2021/11/09 00:34:03;;;;;;;28.60;17.02;;;;;;;6.93;84.37;98280.36;1709428;82;21037;-87
2021/11/09 00:36:31;;;;;;;28.00;17.67;;;;;;;6.94;84.50;98275.52;1731687;82;20982;-87
2021/11/09 00:38:58;;;;;;;27.93;17.32;;;;;;;6.96;84.47;98275.50;1714598;83;21439;-88
2021/11/09 00:41:26;;;;;;;27.42;17.45;;;;;;;6.95;84.30;98274.65;1715795;83;21013;-87
2021/11/09 00:43:53;;;;;;;28.27;17.32;;;;;;;6.95;84.36;98281.67;1731957;83;20977;-87
2021/11/09 00:46:20;;;;;;;31.77;18.95;;;;;;;6.96;84.44;98286.05;1699806;83;20957;-87
2021/11/09 00:48:47;;;;;;;29.40;18.25;;;;;;;6.94;84.32;98281.24;1726319;83;21131;-87
2021/11/09 00:51:14;;;;;;;32.42;18.87;;;;;;;6.94;84.47;98283.88;1704433;83;20953;-87
2021/11/09 00:53:41;;;;;;;30.43;18.23;;;;;;;6.94;84.54;98283.88;1731440;83;21170;-87
2021/11/09 00:56:08;;;;;;;33.28;19.50;;;;;;;6.92;84.51;98280.37;1726738;83;21046;-87
2021/11/09 00:58:35;;;;;;;30.50;19.20;;;;;;;6.91;84.72;98279.95;1728708;83;21036;-87
2021/11/09 01:01:02;;;;;;;31.87;19.00;;;;;;;6.90;84.68;98272.51;1713096;83;21071;-87
2021/11/09 01:03:29;;;;;;;33.42;18.10;;;;;;;6.86;84.55;98274.27;1690507;83;21554;-87
2021/11/09 01:05:56;;;;;;;30.77;18.07;;;;;;;6.81;84.51;98276.55;1730639;83;20986;-87
2021/11/09 01:08:23;;;;;;;33.67;20.35;;;;;;;6.79;84.60;98277.87;1714325;83;21458;-87
2021/11/09 01:10:54;;;;;;;33.42;19.50;;;;;;;6.78;84.54;98273.93;1730013;83;21004;-87
2021/11/09 01:13:25;;;;;;;30.30;18.32;;;;;;;6.76;84.71;98266.50;1700276;83;20973;-87
2021/11/09 01:15:55;;;;;;;30.65;19.00;;;;;;;6.71;84.35;98275.31;1700356;83;21043;-87
2021/11/09 01:18:30;;;;;;;33.05;19.17;;;;;;;6.65;84.92;98281.08;1726710;83;21051;-87
2021/11/09 01:20:58;;;;;;;32.20;18.80;;;;;;;6.63;84.61;98281.52;1727823;81;21441;-86
2021/11/09 01:23:27;;;;;;;30.10;18.57;;;;;;;6.61;84.92;98274.97;1731482;82;21001;-86
2021/11/09 01:25:55;;;;;;;31.80;20.00;;;;;;;6.59;84.81;98287.27;1719446;83;20979;-86
2021/11/09 01:28:23;;;;;;;31.60;19.62;;;;;;;6.57;85.14;98296.95;1705749;83;21066;-86
2021/11/09 01:30:50;;;;;;;30.70;19.25;;;;;;;6.54;85.22;98288.63;1731501;83;21421;-86
2021/11/09 01:33:18;;;;;;;33.70;19.65;;;;;;;6.53;85.08;98285.58;1726720;83;21004;-86
2021/11/09 01:35:45;;;;;;;31.48;18.27;;;;;;;6.53;84.91;98288.21;1726785;83;21473;-87
2021/11/09 01:38:12;;;;;;;31.33;20.20;;;;;;;6.50;85.70;98283.39;1677175;83;21044;-87
2021/11/09 01:40:40;;;;;;;32.05;19.60;;;;;;;6.46;86.27;98282.55;1726909;83;21004;-86
2021/11/09 01:43:09;;;;;;;31.75;19.32;;;;;;;6.42;86.92;98288.72;1727256;83;21039;-86
2021/11/09 01:45:36;;;;;;;33.33;19.35;;;;;;;6.40;86.11;98295.77;1699712;83;21024;-86
2021/11/09 01:48:05;;;;;;;31.02;18.82;;;;;;;6.36;86.51;98304.57;1727862;83;20997;-86
2021/11/09 01:50:37;;;;;;;34.08;20.88;;;;;;;6.37;85.99;98301.05;1715165;83;21104;-86
2021/11/09 01:53:06;;;;;;;30.90;18.75;;;;;;;6.37;86.34;98292.72;1703661;83;21048;-86
2021/11/09 01:55:35;;;;;;;32.58;19.67;;;;;;;6.36;86.11;98297.56;1703017;84;21044;-86
2021/11/09 01:58:02;;;;;;;35.17;19.45;;;;;;;6.37;85.78;98307.63;1703221;84;21607;-86
2021/11/09 02:00:34;;;;;;;31.10;18.55;;;;;;;6.38;85.56;98297.52;1718192;83;21517;-86
2021/11/09 02:03:02;;;;;;;31.00;19.45;;;;;;;6.40;85.61;98297.94;1726553;83;21539;-86
2021/11/09 02:05:29;;;;;;;33.10;18.98;;;;;;;6.43;85.48;98291.78;1726526;83;21358;-86
2021/11/09 02:08:00;;;;;;;34.43;17.90;;;;;;;6.45;85.49;98298.78;1726421;81;21095;-86
2021/11/09 02:10:32;;;;;;;29.65;16.82;;;;;;;6.44;85.56;98296.18;1718828;81;21081;-86
2021/11/09 02:13:00;;;;;;;29.37;18.35;;;;;;;6.47;85.49;98296.14;1704585;83;21016;-86
2021/11/09 02:15:29;;;;;;;30.82;17.67;;;;;;;6.50;85.20;98305.34;1713023;83;21482;-86
2021/11/09 02:17:56;;;;;;;31.80;18.05;;;;;;;6.54;85.38;98297.85;1730782;82;21036;-86
2021/11/09 02:20:26;;;;;;;31.42;18.48;;;;;;;6.58;85.44;98307.48;1711294;83;20937;-86
2021/11/09 02:22:55;;;;;;;30.65;17.95;;;;;;;6.63;85.58;98293.37;1729238;83;21091;-86
2021/11/09 02:25:26;;;;;;;29.82;17.17;;;;;;;6.67;85.54;98282.81;1676706;83;21116;-86
2021/11/09 02:27:55;;;;;;;30.35;16.97;;;;;;;6.70;85.58;98273.58;1730402;83;21116;-86
2021/11/09 02:30:26;;;;;;;31.17;18.25;;;;;;;6.71;85.49;98270.05;1728590;83;21031;-86
2021/11/09 02:32:56;;;;;;;27.80;16.77;;;;;;;6.76;85.81;98278.35;1698150;83;21132;-86
2021/11/09 02:35:24;;;;;;;29.35;17.85;;;;;;;6.80;85.26;98277.41;1723477;83;21047;-86
2021/11/09 02:37:56;;;;;;;28.60;16.32;;;;;;;6.84;85.40;98269.91;1724384;83;21263;-86
2021/11/09 02:40:23;;;;;;;27.70;16.67;;;;;;;6.91;85.65;98270.73;1726549;83;21013;-86
2021/11/09 02:42:55;;;;;;;27.93;16.75;;;;;;;6.92;84.78;98276.41;1728453;83;21000;-86
2021/11/09 02:45:38;;;;;;;30.55;17.30;;;;;;;6.91;84.69;98282.16;1728795;82;21092;-86
2021/11/09 02:48:07;;;;;;;29.42;16.90;;;;;;;6.93;84.90;98294.85;1728913;83;21433;-86
2021/11/09 02:50:36;;;;;;;27.20;16.62;;;;;;;6.89;84.45;98294.91;1725372;83;20973;-85
2021/11/09 02:53:08;;;;;;;28.20;16.97;;;;;;;6.85;84.39;98300.66;1695263;83;21595;-86
2021/11/09 02:55:37;;;;;;;27.22;16.70;;;;;;;6.79;84.53;98302.02;1688126;85;21037;-86
2021/11/09 02:58:26;;;;;;;28.75;17.85;;;;;;;6.76;84.41;98316.09;1667622;85;21061;-86
2021/11/09 03:01:14;;;;;;;26.80;17.23;;;;;;;6.70;84.28;98317.03;1679587;84;21071;-86
2021/11/09 03:03:40;;;;;;;29.40;17.65;;;;;;;6.67;85.01;98325.38;1679225;84;21046;-86
2021/11/09 03:08:52;;;;;;;28.07;16.35;;;;;;;6.66;84.90;98328.48;1726059;83;20969;-86
2021/11/09 03:11:16;;;;;;;28.65;18.55;;;;;;;6.65;84.85;98321.47;1724550;83;21452;-84
2021/11/09 03:13:44;;;;;;;34.63;19.30;;;;;;;6.64;84.83;98316.21;1725112;83;21024;-85
2021/11/09 03:16:13;;;;;;;28.70;17.48;;;;;;;6.63;84.97;98324.55;1710469;83;20985;-86
2021/11/09 03:18:52;;;;;;;31.02;17.52;;;;;;;6.63;84.89;98315.33;1724571;83;21426;-86
2021/11/09 03:40:30;;;;;;;34.75;18.73;;;;;;;6.37;85.64;98307.20;1687154;81;21067;-87
2021/11/09 03:45:41;;;;;;;29.87;18.32;;;;;;;6.36;85.35;98307.20;1679525;80;20175;-87
2021/11/09 03:48:12;;;;;;;31.37;18.60;;;;;;;6.34;85.21;98302.83;1729862;81;21059;-87
2021/11/09 03:50:41;;;;;;;32.00;18.52;;;;;;;6.31;85.55;98302.84;1729455;79;21060;-86
2021/11/09 03:53:18;;;;;;;30.25;18.75;;;;;;;6.31;85.77;98316.00;1714857;82;21253;-87
2021/11/09 03:56:03;;;;;;;33.45;18.23;;;;;;;6.29;85.77;98335.33;1651242;81;21050;-86
2021/11/09 03:58:38;;;;;;;31.35;17.48;;;;;;;6.23;86.46;98356.44;1678021;85;21049;-86
2021/11/09 04:01:03;;;;;;;30.10;17.45;;;;;;;6.19;85.99;98364.80;1636880;85;20969;-87
2021/11/09 04:03:52;;;;;;;28.80;15.88;;;;;;;6.18;86.09;98359.96;1677856;86;20973;-86
2021/11/09 04:14:15;;;;;;;27.58;16.23;;;;;;;6.24;86.38;98355.55;1648245;86;21497;-86
2021/11/09 04:16:40;;;;;;;29.55;17.45;;;;;;;6.25;86.20;98354.66;1682756;85;21562;-87
2021/11/09 04:22:48;;;;;;;31.30;16.77;;;;;;;6.32;86.08;98343.22;1654665;85;21025;-87
2021/11/09 04:43:49;;;;;;;29.37;17.12;;;;;;;6.40;85.93;98345.80;1676684;84;21031;-86
2021/11/09 04:52:39;;;;;;;31.62;18.07;;;;;;;6.18;85.81;98372.23;1693322;84;21060;-86
2021/11/09 05:08:27;;;;;;;34.18;19.07;;;;;;;6.01;86.99;98378.44;1696803;84;20981;-86
2021/11/09 05:10:56;;;;;;;31.27;18.67;;;;;;;5.95;87.62;98375.84;1696617;84;21048;-88
2021/11/09 05:13:25;;;;;;;32.63;18.87;;;;;;;5.93;87.00;98377.59;1666234;85;21052;-86
2021/11/09 05:15:54;;;;;;;31.27;18.02;;;;;;;5.93;86.59;98377.16;1691959;85;21044;-86
2021/11/09 05:18:24;;;;;;;33.92;19.20;;;;;;;5.93;86.52;98390.75;1692052;85;21024;-86
2021/11/09 05:20:52;;;;;;;35.10;18.57;;;;;;;5.85;86.78;98406.56;1666957;84;21083;-86
2021/11/09 05:23:20;;;;;;;34.20;18.45;;;;;;;5.82;87.44;98402.66;1697185;84;21647;-86
2021/11/09 05:25:49;;;;;;;30.50;17.45;;;;;;;5.78;87.31;98403.08;1671293;84;21571;-86
2021/11/09 05:28:17;;;;;;;34.88;19.48;;;;;;;5.75;87.31;98404.84;1672167;84;21016;-87
2021/11/09 05:30:49;;;;;;;32.20;18.20;;;;;;;5.72;87.52;98404.42;1644220;85;21036;-86
2021/11/09 05:33:15;;;;;;;34.98;19.20;;;;;;;5.71;87.40;98418.46;1689504;84;21120;-86
2021/11/09 05:35:44;;;;;;;30.10;16.87;;;;;;;5.71;87.58;98433.34;1683451;85;21798;-87
2021/11/09 05:38:13;;;;;;;30.65;17.42;;;;;;;5.73;87.10;98418.00;1656950;85;21124;-87
2021/11/09 05:40:51;;;;;;;32.55;16.82;;;;;;;5.76;86.91;98423.69;1628539;86;21107;-86
2021/11/09 05:43:13;;;;;;;30.23;16.97;;;;;;;5.77;87.39;98422.38;1642388;86;21063;-87
2021/11/09 05:45:42;;;;;;;30.00;16.62;;;;;;;5.79;87.19;98431.16;1642985;86;21056;-87
2021/11/09 05:48:11;;;;;;;29.63;16.85;;;;;;;5.84;87.07;98446.91;1621486;86;21430;-87
2021/11/09 05:50:40;;;;;;;33.13;18.17;;;;;;;5.89;87.13;98456.97;1645457;85;21033;-87
2021/11/09 05:53:10;;;;;;;32.25;18.45;;;;;;;5.95;87.32;98461.35;1683123;83;20985;-86
2021/11/09 05:55:38;;;;;;;30.35;16.60;;;;;;;6.02;87.28;98460.89;1685887;83;21052;-87
2021/11/09 05:58:07;;;;;;;30.90;17.65;;;;;;;6.05;87.28;98461.78;1726599;82;21609;-87
2021/11/09 06:00:36;;;;;;;30.25;17.07;;;;;;;6.07;86.75;98473.16;1680032;83;20960;-87
2021/11/09 06:03:05;;;;;;;34.18;18.85;;;;;;;6.11;87.12;98475.80;1706905;83;21025;-87
2021/11/09 06:05:36;;;;;;;32.88;18.37;;;;;;;6.11;86.96;98487.21;1706433;83;20989;-86
2021/11/09 06:08:09;;;;;;;32.98;16.90;;;;;;;6.16;87.20;98503.86;1726450;83;21072;-88
2021/11/09 06:10:40;;;;;;;34.85;19.00;;;;;;;6.22;87.25;98515.24;1708130;83;20977;-87
2021/11/09 06:13:07;;;;;;;31.12;18.32;;;;;;;6.25;87.33;98520.48;1708348;83;21103;-87
2021/11/09 06:15:37;;;;;;;32.58;18.17;;;;;;;6.28;87.19;98536.27;1723552;83;21051;-87
2021/11/09 06:18:07;;;;;;;31.45;18.00;;;;;;;6.30;87.01;98544.59;1699143;83;20958;-86
2021/11/09 06:20:35;;;;;;;34.23;19.17;;;;;;;6.30;86.65;98550.29;1707691;83;20957;-86
2021/11/09 06:23:04;;;;;;;33.08;18.27;;;;;;;6.31;86.68;98554.70;1694802;83;21032;-87
2021/11/09 06:25:34;;;;;;;32.48;17.95;;;;;;;6.33;86.72;98552.50;1662248;83;21355;-87
2021/11/09 06:28:08;;;;;;;30.12;17.12;;;;;;;6.32;86.56;98542.82;1734740;82;21036;-86
2021/11/09 06:30:43;;;;;;;31.45;17.95;;;;;;;6.33;86.51;98546.34;1697816;83;21036;-86
2021/11/09 06:33:14;;;;;;;31.93;17.37;;;;;;;6.32;86.22;98547.23;1679965;84;21446;-86
2021/11/09 06:35:47;;;;;;;29.40;17.40;;;;;;;6.32;86.17;98549.41;1676189;83;21040;-86
2021/11/09 06:38:17;;;;;;;31.17;17.70;;;;;;;6.35;86.11;98552.47;1679060;84;21409;-86
2021/11/09 06:40:48;;;;;;;33.25;18.20;;;;;;;6.32;85.77;98560.39;1680440;84;21861;-87
2021/11/09 06:43:16;;;;;;;37.15;17.95;;;;;;;6.29;85.94;98563.02;1680518;84;21449;-87
2021/11/09 06:45:51;;;;;;;36.73;18.87;;;;;;;6.28;85.97;98570.49;1714150;83;21119;-87
2021/11/09 06:48:19;;;;;;;34.60;18.77;;;;;;;6.31;85.93;98578.39;1652932;83;20986;-87
2021/11/09 06:50:46;;;;;;;36.05;19.35;;;;;;;6.30;85.89;98593.30;1704802;83;20921;-87
2021/11/09 06:53:16;;;;;;;32.23;18.30;;;;;;;6.33;85.93;98609.52;1686364;85;21481;-87
2021/11/09 06:55:43;;;;;;;36.85;18.67;;;;;;;6.39;85.93;98604.70;1668112;85;21048;-87
2021/11/09 06:58:15;;;;;;;36.63;18.60;;;;;;;6.41;85.73;98601.17;1627940;87;21632;-87
2021/11/09 07:00:43;;;;;;;35.55;19.02;;;;;;;6.42;85.64;98602.92;1617220;85;21168;-87
2021/11/09 07:03:11;;;;;;;33.83;17.67;;;;;;;6.41;85.32;98598.97;1653075;85;21304;-87
2021/11/09 07:05:40;;;;;;;34.03;17.00;;;;;;;6.40;85.26;98611.25;1623517;86;20980;-86
2021/11/09 07:08:06;;;;;;;32.50;17.35;;;;;;;6.40;84.41;98627.05;1642905;85;21106;-86
2021/11/09 07:10:37;;;;;;;31.68;16.30;;;;;;;6.31;84.02;98635.84;1718646;83;21012;-86
2021/11/09 07:13:06;;;;;;;36.90;17.48;;;;;;;6.24;83.77;98639.81;1707225;83;21059;-87
2021/11/09 07:15:36;;;;;;;30.70;17.32;;;;;;;6.25;84.41;98636.30;1707435;83;21036;-86
2021/11/09 07:18:08;;;;;;;39.78;20.10;;;;;;;6.23;83.85;98636.29;1708993;83;21004;-86
2021/11/09 07:20:37;;;;;;;31.57;15.25;;;;;;;6.20;84.02;98637.63;1725553;83;20952;-86
2021/11/09 07:23:07;;;;;;;32.20;14.80;;;;;;;6.18;83.97;98639.38;1721708;83;21389;-86
2021/11/09 07:25:37;;;;;;;33.50;15.63;;;;;;;6.11;83.80;98642.91;1709229;82;21000;-85
2021/11/09 07:28:04;;;;;;;27.60;14.55;;;;;;;6.09;83.79;98644.67;1720904;83;21052;-86
2021/11/09 07:30:47;;;;;;;33.55;16.35;;;;;;;6.07;83.77;98644.21;1723387;82;21002;-85
2021/11/09 07:33:13;;;;;;;29.37;15.25;;;;;;;6.07;83.67;98641.58;1721190;83;21138;-84
2021/11/09 07:35:40;;;;;;;32.23;15.18;;;;;;;6.08;83.56;98650.36;1716574;83;21054;-85
2021/11/09 07:38:07;;;;;;;32.95;15.35;;;;;;;5.99;83.02;98646.39;1715793;82;21041;-85
2021/11/09 07:40:34;;;;;;;27.85;14.60;;;;;;;5.86;82.71;98652.09;1716056;83;21009;-84
2021/11/09 07:43:01;;;;;;;30.43;15.78;;;;;;;5.72;83.23;98653.41;1716244;83;20944;-84
2021/11/09 07:45:29;;;;;;;29.37;14.70;;;;;;;5.66;83.29;98663.48;1716602;83;20991;-84
2021/11/09 07:47:57;;;;;;;32.58;15.10;;;;;;;5.65;83.44;98660.41;1716338;83;21040;-85
2021/11/09 07:50:25;;;;;;;28.50;13.85;;;;;;;5.68;83.93;98651.20;1714101;82;20980;-85
2021/11/09 07:52:57;;;;;;;27.82;14.15;;;;;;;5.68;83.91;98653.41;1712703;82;21556;-86
2021/11/09 07:55:21;;;;;;;28.55;13.70;;;;;;;5.70;82.97;98661.72;1718047;83;20995;-85
2021/11/09 07:57:55;;;;;;;33.30;13.55;;;;;;;5.68;83.29;98664.34;1719701;83;21018;-85
2021/11/09 08:00:33;;;;;;;26.33;12.45;;;;;;;5.65;82.72;98663.91;1709848;83;21027;-85
2021/11/09 08:05:30;;;;;;;27.75;13.20;;;;;;;5.70;82.46;98679.70;1718359;83;21521;-85
2021/11/09 08:07:57;;;;;;;30.68;14.47;;;;;;;5.75;82.90;98684.95;1717873;83;21064;-82
2021/11/09 08:10:21;;;;;;;30.52;16.35;;;;;;;5.82;83.39;98688.05;1719285;83;21025;-84
2021/11/09 08:12:48;;;;;;;33.92;15.40;;;;;;;5.86;83.55;98690.23;1714813;82;21107;-87
2021/11/09 08:15:15;;;;;;;34.15;16.30;;;;;;;5.94;83.59;98693.30;1713749;83;21579;-86
2021/11/09 08:17:44;;;;;;;30.23;15.35;;;;;;;6.04;83.43;98710.02;1716160;83;21008;-90
2021/11/09 08:20:11;;;;;;;31.73;15.63;;;;;;;6.22;82.09;98720.55;1716059;83;21008;-88
2021/11/09 08:22:40;;;;;;;32.25;15.45;;;;;;;6.37;82.02;98718.33;1678112;83;21018;-84
2021/11/09 08:25:07;;;;;;;36.50;17.55;;;;;;;6.52;81.99;98725.34;1716288;83;21521;-88
2021/11/09 08:27:34;;;;;;;31.23;16.42;;;;;;;6.67;82.16;98731.91;1700199;83;21029;-81
2021/11/09 08:30:00;;;;;;;33.35;17.00;;;;;;;6.77;81.44;98720.89;1715717;83;21028;-84
2021/11/09 08:32:27;;;;;;;36.80;19.70;;;;;;;6.79;80.74;98723.53;1715808;83;21020;-87
2021/11/09 08:34:55;;;;;;;32.93;17.98;;;;;;;6.86;81.38;98730.55;1724187;83;21429;-94
2021/11/09 08:37:22;;;;;;;28.47;15.10;;;;;;;6.87;78.88;98727.03;1727192;83;21315;-84
2021/11/09 08:39:51;;;;;;;27.13;14.18;;;;;;;6.81;79.07;98727.91;1726402;83;20961;-84
2021/11/09 08:42:25;;;;;;;23.60;13.48;;;;;;;6.78;79.39;98729.25;1725393;82;21139;-84
2021/11/09 08:44:51;;;;;;;24.00;13.38;;;;;;;6.83;78.84;98740.66;1725946;82;21036;-84
2021/11/09 08:47:19;;;;;;;23.87;12.58;;;;;;;6.94;78.46;98731.84;1725603;83;21009;-81
2021/11/09 08:49:44;;;;;;;23.75;13.20;;;;;;;7.12;77.67;98730.47;1726042;83;20996;-86
2021/11/09 08:52:13;;;;;;;24.82;13.00;;;;;;;7.35;77.66;98726.84;1726902;83;21095;-84
2021/11/09 09:05:27;;;;;;;23.90;13.05;;;;;;;7.82;73.72;98746.39;1728140;83;21056;-84
2021/11/09 09:07:54;;;;;;;23.70;12.88;;;;;;;7.91;73.92;98742.80;1733956;82;20959;-84
2021/11/09 09:10:22;;;;;;;26.52;12.30;;;;;;;7.89;74.54;98745.45;1726569;83;21100;-83
2021/11/09 09:12:49;;;;;;;23.83;13.03;;;;;;;7.75;73.82;98742.91;1726510;83;21157;-83
2021/11/09 09:15:19;;;;;;;23.85;12.90;;;;;;;7.73;75.31;98739.39;1726725;83;21001;-84
2021/11/09 09:17:46;;;;;;;22.75;12.55;;;;;;;7.71;74.76;98737.64;1727654;83;21324;-83
2021/11/09 09:23:12;;;;;;;24.23;12.63;;;;;;;7.64;74.96;98755.30;1727299;83;21039;-85
2021/11/09 09:31:01;;;;;;;21.47;12.37;;;;;;;7.64;75.24;98759.25;1688176;85;21067;-86
2021/11/09 09:52:52;;;;;;;18.73;9.28;;;;;;;8.67;73.08;98762.04;1727849;83;21091;-85
2021/11/09 09:55:22;;;;;;;14.28;8.80;;;;;;;8.93;72.21;98760.89;1670127;83;21027;-84
2021/11/09 09:57:48;;;;;;;18.25;9.93;;;;;;;9.22;72.71;98761.48;1733645;82;21060;-84
2021/11/09 10:00:17;;;;;;;24.12;12.30;;;;;;;9.40;71.70;98768.32;1726991;82;21520;-85
2021/11/09 10:02:54;;;;;;;14.18;8.83;;;;;;;9.49;71.43;98772.61;1727440;83;21024;-82
2021/11/09 10:05:24;;;;;;;17.70;8.68;;;;;;;9.43;70.62;98785.45;1726504;83;21004;-80
2021/11/09 10:07:55;;;;;;;16.32;9.50;;;;;;;9.28;69.83;98787.86;1727135;82;21418;-79
2021/11/09 10:10:29;;;;;;;16.50;9.58;;;;;;;9.07;68.58;98786.32;1684212;84;21088;-81
2021/11/09 10:13:03;;;;;;;18.30;10.32;;;;;;;9.01;69.14;98784.61;1683467;84;21405;-82
2021/11/09 10:15:33;;;;;;;20.37;11.03;;;;;;;8.97;70.68;98788.20;1661138;85;21488;-76
2021/11/09 10:18:04;;;;;;;17.92;10.30;;;;;;;9.08;69.67;98795.56;1661116;86;21100;-84
2021/11/09 10:20:38;;;;;;;19.45;10.43;;;;;;;9.24;70.12;98792.75;1662242;85;21004;-88
2021/11/09 10:23:07;;;;;;;;;;;;;;;9.28;67.64;98793.58;1663185;86;21087;-85
2021/11/09 10:25:37;;;;;;;16.77;9.65;;;;;;;9.33;69.17;98794.41;1671965;85;20128;-89
2021/11/09 10:28:09;;;;;;;16.65;9.75;;;;;;;9.32;68.72;98805.45;1672920;85;21037;-83
2021/11/09 10:30:40;;;;;;;20.50;10.75;;;;;;;9.80;67.19;98811.91;1692530;84;21023;-85
2021/11/09 10:33:15;;;;;;;15.55;10.38;;;;;;;10.53;63.67;98808.24;1662326;86;21056;-91
2021/11/09 10:35:45;;;;;;;20.02;10.48;;;;;;;11.06;60.17;98812.65;1655758;86;22116;-87
2021/11/09 10:38:15;;;;;;;19.70;10.98;;;;;;;11.46;59.22;98815.44;1700544;83;21016;-83
2021/11/09 10:40:50;;;;;;;17.30;10.60;;;;;;;11.91;61.13;98809.66;1724002;83;20952;-79
2021/11/09 10:43:21;;;;;;;15.43;10.13;;;;;;;12.38;61.40;98811.69;1722818;83;21043;-77
2021/11/09 10:45:48;;;;;;;18.17;10.15;;;;;;;13.11;58.81;98812.10;1724251;83;21468;-76
2021/11/09 10:48:19;;;;;;;16.93;10.48;;;;;;;12.63;54.58;98816.41;1724525;83;20974;-76
2021/11/09 10:50:50;;;;;;;22.82;11.73;;;;;;;13.55;56.34;98809.17;1718782;83;20929;-74
2021/11/09 10:53:45;;;;;;;17.17;11.00;;;;;;;14.23;52.94;98816.92;1716118;83;21529;-76
2021/11/09 10:56:38;;;;;;;16.32;11.28;;;;;;;14.04;53.08;98816.16;1678561;85;20982;-74
2021/11/09 10:59:16;;;;;;;17.82;11.10;;;;;;;13.67;53.87;98824.78;1629408;87;21025;-74
2021/11/09 11:04:38;;;;;;;18.23;10.95;;;;;;;13.24;56.18;98832.16;1654195;86;21151;-74
2021/11/09 11:07:09;;;;;;;18.25;11.68;;;;;;;12.33;54.85;98832.66;1670540;85;21067;-82
2021/11/09 11:09:38;;;;;;;16.87;9.93;;;;;;;12.18;56.01;98836.09;1669805;85;20957;-84
2021/11/09 11:12:13;;;;;;;18.27;10.88;;;;;;;12.62;57.18;98837.75;1716356;84;20981;-82
2021/11/09 11:14:46;;;;;;;15.83;10.10;;;;;;;12.65;57.92;98834.99;1714461;82;21012;-88
2021/11/09 11:17:18;;;;;;;15.68;9.25;;;;;;;12.77;56.72;98842.68;1717762;84;21044;-85
2021/11/09 11:19:54;;;;;;;18.02;11.28;;;;;;;13.78;54.89;98849.79;1705099;84;20956;-85
2021/11/09 11:22:28;;;;;;;16.32;10.13;;;;;;;14.35;51.67;98850.33;1679762;85;21068;-85
2021/11/09 11:24:59;;;;;;;17.57;9.73;;;;;;;14.21;49.50;98859.63;1675648;85;21110;-84
2021/11/09 11:27:32;;;;;;;16.85;10.63;;;;;;;14.07;49.74;98865.86;1678818;85;21074;-84
2021/11/09 11:29:58;;;;;;;15.58;9.53;;;;;;;13.37;52.82;98879.77;1678192;84;21086;-82
2021/11/09 11:32:29;;;;;;;14.10;8.88;;;;;;;13.62;51.58;98875.13;1678835;85;21054;-82
2021/11/09 11:34:58;;;;;;;16.07;9.38;;;;;;;14.82;49.06;98879.59;1667826;85;21604;-82
2021/11/09 11:37:24;;;;;;;14.63;10.05;;;;;;;15.35;44.22;98877.80;1663757;86;21103;-83
2021/11/09 11:39:56;;;;;;;14.98;9.63;;;;;;;16.03;43.27;98874.52;1713734;84;22119;-85
2021/11/09 11:42:22;;;;;;;13.70;8.58;;;;;;;16.64;44.62;98877.05;1717303;83;21032;-86
2021/11/09 11:44:58;;;;;;;14.58;8.10;;;;;;;16.57;43.53;98883.11;1720851;82;21013;-87
2021/11/09 11:47:32;;;;;;;11.93;7.95;;;;;;;16.82;45.02;98882.60;1719751;82;21028;-84
2021/11/09 11:50:00;;;;;;;12.60;8.30;;;;;;;17.61;43.55;98883.78;1714793;83;22080;-84
2021/11/09 11:52:44;;;;;;;13.68;8.20;;;;;;;18.04;38.33;98886.33;1692966;84;21041;-84
2021/11/09 11:55:27;;;;;;;13.65;8.08;;;;;;;17.90;42.63;98888.31;1694037;83;20946;-85
2021/11/09 11:58:08;;;;;;;13.67;8.10;;;;;;;17.75;41.58;98890.74;1690669;85;21079;-86
2021/11/09 12:00:58;;;;;;;12.93;8.73;;;;;;;17.10;42.21;98896.19;1690472;84;21243;-84
2021/11/09 12:03:30;;;;;;;12.63;8.93;;;;;;;16.07;42.29;98886.84;1714286;83;20986;-84
2021/11/09 12:06:00;;;;;;;12.58;8.20;;;;;;;14.59;43.92;98911.38;1718335;83;22178;-84
2021/11/09 12:08:42;;;;;;;14.10;8.95;;;;;;;14.71;45.60;98895.45;1718611;82;21529;-85
2021/11/09 12:11:26;;;;;;;13.65;8.03;;;;;;;14.41;45.18;98906.13;1718403;83;21148;-84
2021/11/09 12:14:00;;;;;;;14.33;8.20;;;;;;;14.71;45.48;98911.46;1712611;83;21057;-86
2021/11/09 12:16:52;;;;;;;12.73;7.75;;;;;;;14.03;47.30;98917.51;1718729;83;21459;-85
2021/11/09 12:19:47;;;;;;;11.43;7.83;;;;;;;13.44;48.49;98920.83;1716934;83;21422;-84
2021/11/09 12:22:26;;;;;;;16.15;8.18;;;;;;;12.77;48.44;98919.82;1714375;83;21021;-85
2021/11/09 12:25:00;;;;;;;13.93;8.38;;;;;;;12.14;49.92;98930.92;1718694;83;21485;-86
2021/11/09 12:27:47;;;;;;;12.93;8.45;;;;;;;12.03;50.80;98925.41;1708477;83;21024;-85
2021/11/09 12:30:40;;;;;;;12.37;7.62;;;;;;;11.88;51.70;98932.78;1718727;83;21458;-83
2021/11/09 12:33:35;;;;;;;12.07;7.87;;;;;;;12.01;51.89;98922.30;1717895;83;21040;-84
2021/11/09 12:36:10;;;;;;;11.78;8.18;;;;;;;11.96;52.23;98935.28;1727712;82;21033;-83
2021/11/09 12:38:45;;;;;;;10.38;7.00;;;;;;;11.81;52.00;98936.00;1731763;82;21028;-85
2021/11/09 12:41:15;;;;;;;11.15;7.15;;;;;;;11.55;52.56;98937.81;1731410;82;21052;-85
2021/11/09 12:43:57;;;;;;;11.93;7.65;;;;;;;11.26;52.98;98940.09;1726713;82;21052;-83
2021/11/09 12:46:33;;;;;;;13.35;7.95;;;;;;;11.01;54.28;98938.30;1721368;83;21536;-83
2021/11/09 12:49:03;;;;;;;13.35;7.70;;;;;;;11.04;54.56;98947.54;1727313;83;21027;-83
2021/11/09 12:51:38;;;;;;;13.53;7.85;;;;;;;11.08;53.85;98953.20;1731588;83;20969;-83
2021/11/09 12:54:15;;;;;;;9.60;6.45;;;;;;;10.97;54.64;98953.39;1731905;82;21059;-82
2021/11/09 12:56:53;;;;;;;15.25;8.90;;;;;;;10.69;54.56;98949.38;1732162;82;20978;-84
2021/11/09 12:59:30;;;;;;;11.55;8.25;;;;;;;10.98;54.41;98966.18;1732162;83;21095;-83
2021/11/09 13:09:44;;;;;;;9.00;5.28;;;;;;;10.74;53.71;98967.86;1732368;82;21041;-83
2021/11/09 13:12:23;;;;;;;10.25;5.37;;;;;;;10.42;54.06;98980.63;1726934;82;21426;-83
2021/11/09 13:15:09;;;;;;;7.83;5.37;;;;;;;10.20;53.90;98988.41;1726874;82;21012;-84
2021/11/09 13:17:45;;;;;;;8.78;5.47;;;;;;;10.10;54.52;98999.14;1727020;83;20988;-83
2021/11/09 13:20:34;;;;;;;8.55;6.08;;;;;;;9.96;55.10;98998.41;1729401;81;21863;-83
2021/11/09 13:23:09;;;;;;;9.40;5.25;;;;;;;9.82;55.29;99006.05;1729609;83;21441;-84
2021/11/09 13:25:50;;;;;;;;;;;;;;;9.64;56.03;99005.78;1733977;83;21480;-83
2021/11/09 13:28:22;;;;;;;9.70;5.40;;;;;;;9.53;56.63;99004.98;1731410;83;20114;-81
2021/11/09 13:31:13;;;;;;;;;;;;;;;;;;;;;
2021/11/09 13:33:49;;;;;;;8.05;5.17;;;;;;;9.41;57.56;99017.44;1630934;82;21013;-81
2021/11/09 13:36:22;;;;;;;8.70;5.67;;;;;;;9.34;56.62;99021.05;1710835;83;21022;-80
2021/11/09 13:38:48;;;;;;;8.33;5.35;;;;;;;9.25;57.14;99021.97;1718378;82;21052;-81
2021/11/09 13:41:20;;;;;;;8.08;4.87;;;;;;;9.20;57.63;99013.19;1713544;84;21457;-82
2021/11/09 13:43:55;;;;;;;9.75;5.25;;;;;;;9.18;57.71;99022.92;1713592;83;22116;-82
2021/11/09 13:46:27;;;;;;;6.80;4.72;;;;;;;9.15;57.80;99021.61;1713662;83;21013;-83
2021/11/09 13:48:59;;;;;;;9.55;5.85;;;;;;;9.08;57.67;99024.30;1712746;82;21009;-84
2021/11/09 13:51:37;;;;;;;8.63;4.97;;;;;;;9.05;58.15;99024.78;1729057;82;21138;-84